sensor_id;sensor_type;location;lat;lon;timestamp;temperature;humidity
10121;DHT22;5100;45.176;5.714;2022-12-29T00:01:42;10.00;70.00
10121;DHT22;5100;45.176;5.714;2022-12-29T00:04:12;10.00;69.90
10121;DHT22;5100;45.176;5.714;2022-12-29T00:06:39;10.00;70.00
10121;DHT22;5100;45.176;5.714;2022-12-29T00:09:05;10.00;69.90
10121;DHT22;5100;45.176;5.714;2022-12-29T00:11:32;10.00;70.10
10121;DHT22;5100;45.176;5.714;2022-12-29T00:13:59;10.00;70.30
10121;DHT22;5100;45.176;5.714;2022-12-29T00:16:45;9.90;70.50
10121;DHT22;5100;45.176;5.714;2022-12-29T00:19:12;9.90;70.40
10121;DHT22;5100;45.176;5.714;2022-12-29T00:21:58;9.90;70.40
10121;DHT22;5100;45.176;5.714;2022-12-29T00:24:44;9.90;70.30
10121;DHT22;5100;45.176;5.714;2022-12-29T00:27:20;9.90;70.10
10121;DHT22;5100;45.176;5.714;2022-12-29T00:30:10;9.90;70.10
10121;DHT22;5100;45.176;5.714;2022-12-29T00:32:56;9.90;70.30
10121;DHT22;5100;45.176;5.714;2022-12-29T00:35:47;9.90;70.20
10121;DHT22;5100;45.176;5.714;2022-12-29T00:38:18;9.90;70.00
10121;DHT22;5100;45.176;5.714;2022-12-29T00:41:04;9.90;70.00
10121;DHT22;5100;45.176;5.714;2022-12-29T00:43:49;9.90;70.20
10121;DHT22;5100;45.176;5.714;2022-12-29T00:46:35;9.80;69.90
10121;DHT22;5100;45.176;5.714;2022-12-29T00:49:02;9.80;70.00
10121;DHT22;5100;45.176;5.714;2022-12-29T00:51:48;9.80;70.00
10121;DHT22;5100;45.176;5.714;2022-12-29T00:54:16;9.80;70.20
10121;DHT22;5100;45.176;5.714;2022-12-29T00:56:43;9.80;70.20
10121;DHT22;5100;45.176;5.714;2022-12-29T00:59:11;9.80;69.90
10121;DHT22;5100;45.176;5.714;2022-12-29T01:01:39;9.80;69.90
10121;DHT22;5100;45.176;5.714;2022-12-29T01:04:06;9.80;69.90
10121;DHT22;5100;45.176;5.714;2022-12-29T01:06:33;9.70;69.70
10121;DHT22;5100;45.176;5.714;2022-12-29T01:09:01;9.70;70.00
10121;DHT22;5100;45.176;5.714;2022-12-29T01:11:47;9.70;69.80
10121;DHT22;5100;45.176;5.714;2022-12-29T01:14:14;9.70;69.60
10121;DHT22;5100;45.176;5.714;2022-12-29T01:16:41;9.70;69.40
10121;DHT22;5100;45.176;5.714;2022-12-29T01:19:07;9.70;69.80
10121;DHT22;5100;45.176;5.714;2022-12-29T01:21:34;9.70;69.60
10121;DHT22;5100;45.176;5.714;2022-12-29T01:24:01;9.70;69.80
10121;DHT22;5100;45.176;5.714;2022-12-29T01:26:27;9.70;69.50
10121;DHT22;5100;45.176;5.714;2022-12-29T01:28:54;9.70;69.50
10121;DHT22;5100;45.176;5.714;2022-12-29T01:31:20;9.70;69.50
10121;DHT22;5100;45.176;5.714;2022-12-29T01:33:47;9.60;69.50
10121;DHT22;5100;45.176;5.714;2022-12-29T01:36:15;9.60;69.80
10121;DHT22;5100;45.176;5.714;2022-12-29T01:38:43;9.60;69.50
10121;DHT22;5100;45.176;5.714;2022-12-29T01:41:11;9.60;69.50
10121;DHT22;5100;45.176;5.714;2022-12-29T01:43:58;9.60;69.60
10121;DHT22;5100;45.176;5.714;2022-12-29T01:49:21;9.60;69.60
10121;DHT22;5100;45.176;5.714;2022-12-29T01:51:55;9.60;69.70
10121;DHT22;5100;45.176;5.714;2022-12-29T01:54:29;9.60;69.70
10121;DHT22;5100;45.176;5.714;2022-12-29T01:57:01;9.60;69.80
10121;DHT22;5100;45.176;5.714;2022-12-29T01:59:32;9.60;69.60
10121;DHT22;5100;45.176;5.714;2022-12-29T02:02:01;9.60;69.80
10121;DHT22;5100;45.176;5.714;2022-12-29T02:04:31;9.60;69.60
10121;DHT22;5100;45.176;5.714;2022-12-29T02:07:02;9.60;69.70
10121;DHT22;5100;45.176;5.714;2022-12-29T02:09:31;9.60;69.70
10121;DHT22;5100;45.176;5.714;2022-12-29T02:11:58;9.60;69.50
10121;DHT22;5100;45.176;5.714;2022-12-29T02:14:25;9.60;69.60
10121;DHT22;5100;45.176;5.714;2022-12-29T02:28:08;9.50;69.40
10121;DHT22;5100;45.176;5.714;2022-12-29T02:33:34;9.50;69.70
10121;DHT22;5100;45.176;5.714;2022-12-29T02:36:07;9.50;70.00
10121;DHT22;5100;45.176;5.714;2022-12-29T02:41:32;9.60;70.00
10121;DHT22;5100;45.176;5.714;2022-12-29T02:44:36;9.60;70.00
10121;DHT22;5100;45.176;5.714;2022-12-29T02:52:31;9.60;69.90
10121;DHT22;5100;45.176;5.714;2022-12-29T02:55:00;9.60;69.70
10121;DHT22;5100;45.176;5.714;2022-12-29T02:57:34;9.60;69.40
10121;DHT22;5100;45.176;5.714;2022-12-29T03:00:14;9.60;69.30
10121;DHT22;5100;45.176;5.714;2022-12-29T03:09:04;9.70;69.00
10121;DHT22;5100;45.176;5.714;2022-12-29T03:11:41;9.70;68.70
10121;DHT22;5100;45.176;5.714;2022-12-29T03:14:36;9.70;68.80
10121;DHT22;5100;45.176;5.714;2022-12-29T03:17:48;9.70;68.60
10121;DHT22;5100;45.176;5.714;2022-12-29T03:20:23;9.70;68.70
10121;DHT22;5100;45.176;5.714;2022-12-29T03:22:51;9.70;68.80
10121;DHT22;5100;45.176;5.714;2022-12-29T03:25:30;9.70;68.50
10121;DHT22;5100;45.176;5.714;2022-12-29T03:28:06;9.70;68.60
10121;DHT22;5100;45.176;5.714;2022-12-29T03:30:35;9.70;68.60
10121;DHT22;5100;45.176;5.714;2022-12-29T03:33:10;9.80;68.30
10121;DHT22;5100;45.176;5.714;2022-12-29T03:35:41;9.80;68.30
10121;DHT22;5100;45.176;5.714;2022-12-29T03:40:57;9.80;69.00
10121;DHT22;5100;45.176;5.714;2022-12-29T03:43:26;9.80;69.00
10121;DHT22;5100;45.176;5.714;2022-12-29T03:45:54;9.80;69.20
10121;DHT22;5100;45.176;5.714;2022-12-29T03:48:21;9.80;69.20
10121;DHT22;5100;45.176;5.714;2022-12-29T03:50:48;9.90;69.30
10121;DHT22;5100;45.176;5.714;2022-12-29T03:53:15;9.90;69.20
10121;DHT22;5100;45.176;5.714;2022-12-29T03:55:42;9.90;68.90
10121;DHT22;5100;45.176;5.714;2022-12-29T03:58:09;9.90;68.70
10121;DHT22;5100;45.176;5.714;2022-12-29T04:00:38;9.90;68.30
10121;DHT22;5100;45.176;5.714;2022-12-29T04:03:05;9.90;68.50
10121;DHT22;5100;45.176;5.714;2022-12-29T04:05:31;9.90;68.80
10121;DHT22;5100;45.176;5.714;2022-12-29T04:07:58;9.90;68.80
10121;DHT22;5100;45.176;5.714;2022-12-29T04:10:26;9.90;69.00
10121;DHT22;5100;45.176;5.714;2022-12-29T04:12:53;9.90;69.00
10121;DHT22;5100;45.176;5.714;2022-12-29T04:15:19;9.90;68.70
10121;DHT22;5100;45.176;5.714;2022-12-29T04:17:46;9.90;68.00
10121;DHT22;5100;45.176;5.714;2022-12-29T04:20:12;9.90;68.50
10121;DHT22;5100;45.176;5.714;2022-12-29T04:23:00;9.90;68.80
10121;DHT22;5100;45.176;5.714;2022-12-29T04:25:27;9.90;68.70
10121;DHT22;5100;45.176;5.714;2022-12-29T04:27:54;9.90;68.50
10121;DHT22;5100;45.176;5.714;2022-12-29T04:30:21;9.90;68.30
10121;DHT22;5100;45.176;5.714;2022-12-29T04:32:48;9.90;68.60
10121;DHT22;5100;45.176;5.714;2022-12-29T04:35:15;9.90;68.80
10121;DHT22;5100;45.176;5.714;2022-12-29T04:37:42;9.90;69.00
10121;DHT22;5100;45.176;5.714;2022-12-29T04:40:09;9.90;69.00
10121;DHT22;5100;45.176;5.714;2022-12-29T04:42:36;9.90;68.80
10121;DHT22;5100;45.176;5.714;2022-12-29T04:45:03;9.90;68.60
10121;DHT22;5100;45.176;5.714;2022-12-29T04:47:30;9.90;68.40
10121;DHT22;5100;45.176;5.714;2022-12-29T04:49:57;9.90;68.20
10121;DHT22;5100;45.176;5.714;2022-12-29T04:52:24;9.90;68.30
10121;DHT22;5100;45.176;5.714;2022-12-29T04:54:52;10.00;68.20
10121;DHT22;5100;45.176;5.714;2022-12-29T04:57:18;9.90;68.40
10121;DHT22;5100;45.176;5.714;2022-12-29T04:59:46;10.00;68.70
10121;DHT22;5100;45.176;5.714;2022-12-29T05:02:14;10.00;68.70
10121;DHT22;5100;45.176;5.714;2022-12-29T05:04:41;10.00;68.70
10121;DHT22;5100;45.176;5.714;2022-12-29T05:07:07;10.00;68.90
10121;DHT22;5100;45.176;5.714;2022-12-29T05:09:34;10.00;68.80
10121;DHT22;5100;45.176;5.714;2022-12-29T05:12:01;10.00;68.90
10121;DHT22;5100;45.176;5.714;2022-12-29T05:14:29;10.00;69.40
10121;DHT22;5100;45.176;5.714;2022-12-29T05:16:55;10.00;69.20
10121;DHT22;5100;45.176;5.714;2022-12-29T05:19:22;10.00;69.20
10121;DHT22;5100;45.176;5.714;2022-12-29T05:21:48;10.00;69.40
10121;DHT22;5100;45.176;5.714;2022-12-29T05:24:15;10.00;69.40
10121;DHT22;5100;45.176;5.714;2022-12-29T05:26:42;10.00;69.40
10121;DHT22;5100;45.176;5.714;2022-12-29T05:29:09;10.00;69.40
10121;DHT22;5100;45.176;5.714;2022-12-29T05:31:35;10.00;69.40
10121;DHT22;5100;45.176;5.714;2022-12-29T05:34:03;10.00;69.50
10121;DHT22;5100;45.176;5.714;2022-12-29T05:36:30;10.00;69.60
10121;DHT22;5100;45.176;5.714;2022-12-29T05:38:57;10.00;69.40
10121;DHT22;5100;45.176;5.714;2022-12-29T05:41:24;10.00;69.20
10121;DHT22;5100;45.176;5.714;2022-12-29T05:43:51;10.00;69.40
10121;DHT22;5100;45.176;5.714;2022-12-29T05:46:18;10.00;69.00
10121;DHT22;5100;45.176;5.714;2022-12-29T05:48:44;10.00;69.40
10121;DHT22;5100;45.176;5.714;2022-12-29T05:51:12;10.00;69.30
10121;DHT22;5100;45.176;5.714;2022-12-29T05:53:39;10.00;69.20
10121;DHT22;5100;45.176;5.714;2022-12-29T05:56:06;10.00;69.00
10121;DHT22;5100;45.176;5.714;2022-12-29T05:58:33;10.00;68.90
10121;DHT22;5100;45.176;5.714;2022-12-29T06:01:00;10.00;68.60
10121;DHT22;5100;45.176;5.714;2022-12-29T06:03:26;10.00;68.40
10121;DHT22;5100;45.176;5.714;2022-12-29T06:05:53;10.00;68.30
10121;DHT22;5100;45.176;5.714;2022-12-29T06:08:19;10.00;68.30
10121;DHT22;5100;45.176;5.714;2022-12-29T06:10:47;10.00;68.30
10121;DHT22;5100;45.176;5.714;2022-12-29T06:13:14;10.00;68.20
10121;DHT22;5100;45.176;5.714;2022-12-29T06:15:40;10.00;68.20
10121;DHT22;5100;45.176;5.714;2022-12-29T06:18:07;10.00;68.30
10121;DHT22;5100;45.176;5.714;2022-12-29T06:20:34;10.00;68.40
10121;DHT22;5100;45.176;5.714;2022-12-29T06:23:02;10.00;68.30
10121;DHT22;5100;45.176;5.714;2022-12-29T06:25:29;10.00;68.60
10121;DHT22;5100;45.176;5.714;2022-12-29T06:27:58;10.00;68.60
10121;DHT22;5100;45.176;5.714;2022-12-29T06:30:24;10.00;68.60
10121;DHT22;5100;45.176;5.714;2022-12-29T06:32:51;10.00;68.40
10121;DHT22;5100;45.176;5.714;2022-12-29T06:35:19;10.00;68.50
10121;DHT22;5100;45.176;5.714;2022-12-29T06:37:45;10.00;68.70
10121;DHT22;5100;45.176;5.714;2022-12-29T06:40:12;10.00;68.80
10121;DHT22;5100;45.176;5.714;2022-12-29T06:42:41;10.00;69.20
10121;DHT22;5100;45.176;5.714;2022-12-29T06:45:08;10.10;69.40
10121;DHT22;5100;45.176;5.714;2022-12-29T06:47:35;10.10;69.60
10121;DHT22;5100;45.176;5.714;2022-12-29T06:50:02;10.10;69.60
10121;DHT22;5100;45.176;5.714;2022-12-29T06:52:29;10.10;69.30
10121;DHT22;5100;45.176;5.714;2022-12-29T06:54:56;10.10;68.90
10121;DHT22;5100;45.176;5.714;2022-12-29T06:57:22;10.10;68.60
10121;DHT22;5100;45.176;5.714;2022-12-29T06:59:49;10.10;68.50
10121;DHT22;5100;45.176;5.714;2022-12-29T07:02:16;10.10;68.50
10121;DHT22;5100;45.176;5.714;2022-12-29T07:04:44;10.10;68.20
10121;DHT22;5100;45.176;5.714;2022-12-29T07:07:11;10.10;68.30
10121;DHT22;5100;45.176;5.714;2022-12-29T07:09:37;10.10;68.50
10121;DHT22;5100;45.176;5.714;2022-12-29T07:12:04;10.10;68.40
10121;DHT22;5100;45.176;5.714;2022-12-29T07:14:30;10.10;68.40
10121;DHT22;5100;45.176;5.714;2022-12-29T07:16:57;10.10;68.50
10121;DHT22;5100;45.176;5.714;2022-12-29T07:19:24;10.20;68.50
10121;DHT22;5100;45.176;5.714;2022-12-29T07:21:50;10.20;68.50
10121;DHT22;5100;45.176;5.714;2022-12-29T07:24:17;10.20;68.50
10121;DHT22;5100;45.176;5.714;2022-12-29T07:26:43;10.20;68.20
10121;DHT22;5100;45.176;5.714;2022-12-29T07:29:09;10.20;67.60
10121;DHT22;5100;45.176;5.714;2022-12-29T07:31:36;10.20;67.40
10121;DHT22;5100;45.176;5.714;2022-12-29T07:34:02;10.20;67.00
10121;DHT22;5100;45.176;5.714;2022-12-29T07:36:29;10.20;66.70
10121;DHT22;5100;45.176;5.714;2022-12-29T07:38:55;10.20;66.50
10121;DHT22;5100;45.176;5.714;2022-12-29T07:41:22;10.20;66.60
10121;DHT22;5100;45.176;5.714;2022-12-29T07:43:48;10.20;66.70
10121;DHT22;5100;45.176;5.714;2022-12-29T07:46:20;10.20;66.40
10121;DHT22;5100;45.176;5.714;2022-12-29T07:48:47;10.20;65.80
10121;DHT22;5100;45.176;5.714;2022-12-29T07:51:13;10.20;66.00
10121;DHT22;5100;45.176;5.714;2022-12-29T07:53:40;10.30;66.00
10121;DHT22;5100;45.176;5.714;2022-12-29T07:56:06;10.30;65.80
10121;DHT22;5100;45.176;5.714;2022-12-29T07:58:32;10.30;65.40
10121;DHT22;5100;45.176;5.714;2022-12-29T08:00:59;10.30;65.30
10121;DHT22;5100;45.176;5.714;2022-12-29T08:03:26;10.30;65.20
10121;DHT22;5100;45.176;5.714;2022-12-29T08:05:52;10.30;65.30
10121;DHT22;5100;45.176;5.714;2022-12-29T08:08:20;10.30;65.30
10121;DHT22;5100;45.176;5.714;2022-12-29T08:10:46;10.30;65.20
10121;DHT22;5100;45.176;5.714;2022-12-29T08:13:13;10.40;65.20
10121;DHT22;5100;45.176;5.714;2022-12-29T08:15:39;10.40;64.90
10121;DHT22;5100;45.176;5.714;2022-12-29T08:18:06;10.40;64.80
10121;DHT22;5100;45.176;5.714;2022-12-29T08:20:32;10.40;64.70
10121;DHT22;5100;45.176;5.714;2022-12-29T08:22:59;10.40;64.70
10121;DHT22;5100;45.176;5.714;2022-12-29T08:25:26;10.40;64.50
10121;DHT22;5100;45.176;5.714;2022-12-29T08:27:52;10.40;64.40
10121;DHT22;5100;45.176;5.714;2022-12-29T08:30:19;10.50;64.40
10121;DHT22;5100;45.176;5.714;2022-12-29T08:32:46;10.50;64.60
10121;DHT22;5100;45.176;5.714;2022-12-29T08:35:12;10.50;64.40
10121;DHT22;5100;45.176;5.714;2022-12-29T08:37:38;10.50;64.00
10121;DHT22;5100;45.176;5.714;2022-12-29T08:40:06;10.60;64.10
10121;DHT22;5100;45.176;5.714;2022-12-29T08:42:32;10.60;64.00
10121;DHT22;5100;45.176;5.714;2022-12-29T08:44:59;10.60;63.80
10121;DHT22;5100;45.176;5.714;2022-12-29T08:47:26;10.60;63.00
10121;DHT22;5100;45.176;5.714;2022-12-29T08:49:53;10.70;62.40
10121;DHT22;5100;45.176;5.714;2022-12-29T08:52:19;10.70;61.70
10121;DHT22;5100;45.176;5.714;2022-12-29T08:54:46;10.70;61.50
10121;DHT22;5100;45.176;5.714;2022-12-29T08:57:12;10.70;61.50
10121;DHT22;5100;45.176;5.714;2022-12-29T08:59:40;10.80;61.30
10121;DHT22;5100;45.176;5.714;2022-12-29T09:02:11;10.80;61.40
10121;DHT22;5100;45.176;5.714;2022-12-29T09:04:37;10.80;61.60
10121;DHT22;5100;45.176;5.714;2022-12-29T09:07:04;10.90;61.80
10121;DHT22;5100;45.176;5.714;2022-12-29T09:09:32;10.90;61.90
10121;DHT22;5100;45.176;5.714;2022-12-29T09:11:59;11.00;62.20
10121;DHT22;5100;45.176;5.714;2022-12-29T09:14:25;11.00;62.00
10121;DHT22;5100;45.176;5.714;2022-12-29T09:16:52;11.00;61.70
10121;DHT22;5100;45.176;5.714;2022-12-29T09:19:37;11.10;61.50
10121;DHT22;5100;45.176;5.714;2022-12-29T09:22:04;11.10;60.90
10121;DHT22;5100;45.176;5.714;2022-12-29T09:24:30;11.10;60.50
10121;DHT22;5100;45.176;5.714;2022-12-29T09:26:57;11.10;60.50
10121;DHT22;5100;45.176;5.714;2022-12-29T09:29:23;11.10;60.40
10121;DHT22;5100;45.176;5.714;2022-12-29T09:31:50;11.10;60.50
10121;DHT22;5100;45.176;5.714;2022-12-29T09:34:16;11.10;60.60
10121;DHT22;5100;45.176;5.714;2022-12-29T09:36:43;11.10;60.60
10121;DHT22;5100;45.176;5.714;2022-12-29T09:39:09;11.10;60.30
10121;DHT22;5100;45.176;5.714;2022-12-29T09:41:57;11.20;60.10
10121;DHT22;5100;45.176;5.714;2022-12-29T09:47:18;11.20;59.70
10121;DHT22;5100;45.176;5.714;2022-12-29T09:50:10;11.20;59.90
10121;DHT22;5100;45.176;5.714;2022-12-29T09:53:01;11.20;59.90
10121;DHT22;5100;45.176;5.714;2022-12-29T09:55:38;11.20;59.60
10121;DHT22;5100;45.176;5.714;2022-12-29T09:58:38;11.20;59.70
10121;DHT22;5100;45.176;5.714;2022-12-29T10:01:13;11.20;59.80
10121;DHT22;5100;45.176;5.714;2022-12-29T10:03:54;11.30;60.00
10121;DHT22;5100;45.176;5.714;2022-12-29T10:06:29;11.30;60.20
10121;DHT22;5100;45.176;5.714;2022-12-29T10:23:09;12.40;57.50
10121;DHT22;5100;45.176;5.714;2022-12-29T10:25:41;12.40;57.40
10121;DHT22;5100;45.176;5.714;2022-12-29T10:31:00;12.20;57.60
10121;DHT22;5100;45.176;5.714;2022-12-29T10:33:34;12.20;57.60
10121;DHT22;5100;45.176;5.714;2022-12-29T10:36:21;12.10;57.80
10121;DHT22;5100;45.176;5.714;2022-12-29T10:41:40;12.00;57.40
10121;DHT22;5100;45.176;5.714;2022-12-29T10:44:11;12.10;57.60
10121;DHT22;5100;45.176;5.714;2022-12-29T10:46:40;12.20;57.50
10121;DHT22;5100;45.176;5.714;2022-12-29T10:49:14;12.30;57.50
10121;DHT22;5100;45.176;5.714;2022-12-29T10:51:44;12.30;57.40
10121;DHT22;5100;45.176;5.714;2022-12-29T10:55:21;12.30;57.30
10121;DHT22;5100;45.176;5.714;2022-12-29T10:57:42;12.30;57.40
10121;DHT22;5100;45.176;5.714;2022-12-29T11:00:21;12.20;57.80
10121;DHT22;5100;45.176;5.714;2022-12-29T11:08:12;12.20;58.20
10121;DHT22;5100;45.176;5.714;2022-12-29T11:10:41;12.20;58.40
10121;DHT22;5100;45.176;5.714;2022-12-29T11:13:25;12.10;58.60
10121;DHT22;5100;45.176;5.714;2022-12-29T11:15:52;12.20;58.80
10121;DHT22;5100;45.176;5.714;2022-12-29T11:18:36;12.10;58.80
10121;DHT22;5100;45.176;5.714;2022-12-29T11:24:00;12.10;59.10
10121;DHT22;5100;45.176;5.714;2022-12-29T11:26:28;12.20;59.30
10121;DHT22;5100;45.176;5.714;2022-12-29T11:31:54;12.20;59.70
10121;DHT22;5100;45.176;5.714;2022-12-29T11:34:25;12.20;59.60
10121;DHT22;5100;45.176;5.714;2022-12-29T11:37:06;12.20;59.80
10121;DHT22;5100;45.176;5.714;2022-12-29T11:42:16;12.20;60.60
10121;DHT22;5100;45.176;5.714;2022-12-29T11:44:45;12.30;60.80
10121;DHT22;5100;45.176;5.714;2022-12-29T11:47:26;12.30;60.90
10121;DHT22;5100;45.176;5.714;2022-12-29T11:49:56;12.30;60.80
10121;DHT22;5100;45.176;5.714;2022-12-29T11:52:26;12.40;60.70
10121;DHT22;5100;45.176;5.714;2022-12-29T11:54:55;12.40;60.90
10121;DHT22;5100;45.176;5.714;2022-12-29T11:57:24;12.40;61.00
10121;DHT22;5100;45.176;5.714;2022-12-29T11:59:55;12.40;61.20
10121;DHT22;5100;45.176;5.714;2022-12-29T12:02:38;12.40;61.30
10121;DHT22;5100;45.176;5.714;2022-12-29T12:05:28;12.50;61.50
10121;DHT22;5100;45.176;5.714;2022-12-29T12:08:10;12.50;61.70
10121;DHT22;5100;45.176;5.714;2022-12-29T12:10:48;12.50;61.30
10121;DHT22;5100;45.176;5.714;2022-12-29T12:13:28;12.50;61.10
10121;DHT22;5100;45.176;5.714;2022-12-29T12:16:06;12.60;60.90
10121;DHT22;5100;45.176;5.714;2022-12-29T12:18:49;12.60;60.80
10121;DHT22;5100;45.176;5.714;2022-12-29T12:21:38;12.60;60.80
10121;DHT22;5100;45.176;5.714;2022-12-29T12:24:26;12.70;60.90
10121;DHT22;5100;45.176;5.714;2022-12-29T12:30:12;12.70;61.40
10121;DHT22;5100;45.176;5.714;2022-12-29T12:38:22;12.80;63.00
10121;DHT22;5100;45.176;5.714;2022-12-29T12:41:11;12.80;63.30
10121;DHT22;5100;45.176;5.714;2022-12-29T13:00:18;13.00;66.30
10121;DHT22;5100;45.176;5.714;2022-12-29T13:10:57;13.10;64.60
10121;DHT22;5100;45.176;5.714;2022-12-29T13:19:26;13.20;63.90
10121;DHT22;5100;45.176;5.714;2022-12-29T13:30:10;13.40;62.10
10121;DHT22;5100;45.176;5.714;2022-12-29T13:33:04;13.30;62.10
10121;DHT22;5100;45.176;5.714;2022-12-29T13:36:03;13.40;62.80
10121;DHT22;5100;45.176;5.714;2022-12-29T13:39:37;13.40;62.30
10121;DHT22;5100;45.176;5.714;2022-12-29T13:41:58;13.40;61.90
10121;DHT22;5100;45.176;5.714;2022-12-29T13:44:39;13.40;62.60
10121;DHT22;5100;45.176;5.714;2022-12-29T13:47:25;13.40;63.00
10121;DHT22;5100;45.176;5.714;2022-12-29T13:49:54;13.40;63.60
10121;DHT22;5100;45.176;5.714;2022-12-29T13:55:24;13.40;63.60
10121;DHT22;5100;45.176;5.714;2022-12-29T13:58:07;13.40;64.30
10121;DHT22;5100;45.176;5.714;2022-12-29T14:06:30;13.40;65.80
10121;DHT22;5100;45.176;5.714;2022-12-29T14:08:59;13.40;66.40
10121;DHT22;5100;45.176;5.714;2022-12-29T14:11:38;13.40;66.60
10121;DHT22;5100;45.176;5.714;2022-12-29T14:14:21;13.40;67.90
10121;DHT22;5100;45.176;5.714;2022-12-29T14:16:48;13.50;69.30
10121;DHT22;5100;45.176;5.714;2022-12-29T14:19:28;13.50;69.60
10121;DHT22;5100;45.176;5.714;2022-12-29T14:22:02;13.50;70.00
10121;DHT22;5100;45.176;5.714;2022-12-29T14:26:59;13.50;70.70
10121;DHT22;5100;45.176;5.714;2022-12-29T14:31:52;13.50;71.10
10121;DHT22;5100;45.176;5.714;2022-12-29T14:37:02;13.60;71.40
10121;DHT22;5100;45.176;5.714;2022-12-29T14:45:07;13.60;71.60
10121;DHT22;5100;45.176;5.714;2022-12-29T14:47:48;13.60;71.60
10121;DHT22;5100;45.176;5.714;2022-12-29T14:52:53;13.60;71.80
10121;DHT22;5100;45.176;5.714;2022-12-29T14:55:40;13.70;71.90
10121;DHT22;5100;45.176;5.714;2022-12-29T14:58:29;13.70;72.00
10121;DHT22;5100;45.176;5.714;2022-12-29T15:00:57;13.70;72.10
10121;DHT22;5100;45.176;5.714;2022-12-29T15:04:13;13.70;72.00
10121;DHT22;5100;45.176;5.714;2022-12-29T15:06:19;13.70;72.10
10121;DHT22;5100;45.176;5.714;2022-12-29T15:08:55;13.70;72.10
10121;DHT22;5100;45.176;5.714;2022-12-29T15:13:58;13.70;72.20
10121;DHT22;5100;45.176;5.714;2022-12-29T15:16:33;13.70;72.50
10121;DHT22;5100;45.176;5.714;2022-12-29T15:19:02;13.70;72.60
10121;DHT22;5100;45.176;5.714;2022-12-29T15:21:34;13.70;72.70
10121;DHT22;5100;45.176;5.714;2022-12-29T15:24:03;13.70;72.70
10121;DHT22;5100;45.176;5.714;2022-12-29T15:26:39;13.80;72.70
10121;DHT22;5100;45.176;5.714;2022-12-29T15:29:39;13.80;72.80
10121;DHT22;5100;45.176;5.714;2022-12-29T15:34:47;13.80;73.10
10121;DHT22;5100;45.176;5.714;2022-12-29T15:37:19;13.80;73.00
10121;DHT22;5100;45.176;5.714;2022-12-29T15:39:46;13.80;73.10
10121;DHT22;5100;45.176;5.714;2022-12-29T15:42:30;13.80;73.20
10121;DHT22;5100;45.176;5.714;2022-12-29T15:44:58;13.80;73.20
10121;DHT22;5100;45.176;5.714;2022-12-29T15:47:30;13.80;73.30
10121;DHT22;5100;45.176;5.714;2022-12-29T15:50:04;13.80;73.30
10121;DHT22;5100;45.176;5.714;2022-12-29T15:52:33;13.80;73.40
10121;DHT22;5100;45.176;5.714;2022-12-29T15:55:01;13.80;72.90
10121;DHT22;5100;45.176;5.714;2022-12-29T15:57:36;13.80;72.00
10121;DHT22;5100;45.176;5.714;2022-12-29T16:00:17;13.80;70.80
10121;DHT22;5100;45.176;5.714;2022-12-29T16:02:48;13.80;70.40
10121;DHT22;5100;45.176;5.714;2022-12-29T16:05:17;13.80;70.80
10121;DHT22;5100;45.176;5.714;2022-12-29T16:07:57;13.80;69.60
10121;DHT22;5100;45.176;5.714;2022-12-29T16:10:51;13.80;69.20
10121;DHT22;5100;45.176;5.714;2022-12-29T16:13:32;13.70;69.60
10121;DHT22;5100;45.176;5.714;2022-12-29T16:16:21;13.70;69.70
10121;DHT22;5100;45.176;5.714;2022-12-29T16:18:50;13.70;69.20
10121;DHT22;5100;45.176;5.714;2022-12-29T16:21:33;13.70;68.80
10121;DHT22;5100;45.176;5.714;2022-12-29T16:24:02;13.70;69.00
10121;DHT22;5100;45.176;5.714;2022-12-29T16:26:32;13.70;69.30
10121;DHT22;5100;45.176;5.714;2022-12-29T16:29:04;13.70;69.50
10121;DHT22;5100;45.176;5.714;2022-12-29T16:31:35;13.60;69.30
10121;DHT22;5100;45.176;5.714;2022-12-29T16:34:25;13.60;69.50
10121;DHT22;5100;45.176;5.714;2022-12-29T16:39:38;13.60;67.90
10121;DHT22;5100;45.176;5.714;2022-12-29T16:42:46;13.60;67.80
10121;DHT22;5100;45.176;5.714;2022-12-29T16:50:37;13.60;71.80
10121;DHT22;5100;45.176;5.714;2022-12-29T16:53:05;13.60;72.40
10121;DHT22;5100;45.176;5.714;2022-12-29T16:55:36;13.60;72.00
10121;DHT22;5100;45.176;5.714;2022-12-29T16:58:02;13.60;72.60
10121;DHT22;5100;45.176;5.714;2022-12-29T17:00:37;13.60;72.60
10121;DHT22;5100;45.176;5.714;2022-12-29T17:03:09;13.60;72.00
10121;DHT22;5100;45.176;5.714;2022-12-29T17:05:36;13.60;71.70
10121;DHT22;5100;45.176;5.714;2022-12-29T17:08:16;13.60;72.30
10121;DHT22;5100;45.176;5.714;2022-12-29T17:10:52;13.60;73.10
10121;DHT22;5100;45.176;5.714;2022-12-29T17:13:38;13.60;73.60
10121;DHT22;5100;45.176;5.714;2022-12-29T17:16:06;13.60;74.80
10121;DHT22;5100;45.176;5.714;2022-12-29T17:18:36;13.70;75.50
10121;DHT22;5100;45.176;5.714;2022-12-29T17:21:06;13.70;75.50
10121;DHT22;5100;45.176;5.714;2022-12-29T17:23:32;13.70;75.60
10121;DHT22;5100;45.176;5.714;2022-12-29T17:26:00;13.70;75.70
10121;DHT22;5100;45.176;5.714;2022-12-29T17:28:30;13.80;75.70
10121;DHT22;5100;45.176;5.714;2022-12-29T17:31:05;13.80;75.90
10121;DHT22;5100;45.176;5.714;2022-12-29T17:33:36;13.80;75.80
10121;DHT22;5100;45.176;5.714;2022-12-29T17:36:08;13.80;75.90
10121;DHT22;5100;45.176;5.714;2022-12-29T17:38:37;13.80;75.90
10121;DHT22;5100;45.176;5.714;2022-12-29T17:41:03;13.80;75.90
10121;DHT22;5100;45.176;5.714;2022-12-29T17:43:35;13.80;76.00
10121;DHT22;5100;45.176;5.714;2022-12-29T17:46:04;13.80;76.00
10121;DHT22;5100;45.176;5.714;2022-12-29T17:48:31;13.80;76.20
10121;DHT22;5100;45.176;5.714;2022-12-29T17:50:58;13.80;76.20
10121;DHT22;5100;45.176;5.714;2022-12-29T17:53:27;13.80;76.10
10121;DHT22;5100;45.176;5.714;2022-12-29T17:55:54;13.80;76.10
10121;DHT22;5100;45.176;5.714;2022-12-29T17:58:26;13.80;76.20
10121;DHT22;5100;45.176;5.714;2022-12-29T18:01:18;13.80;76.10
10121;DHT22;5100;45.176;5.714;2022-12-29T18:03:47;13.80;76.10
10121;DHT22;5100;45.176;5.714;2022-12-29T18:06:14;13.80;75.90
10121;DHT22;5100;45.176;5.714;2022-12-29T18:08:43;13.80;75.80
10121;DHT22;5100;45.176;5.714;2022-12-29T18:11:24;13.80;75.70
10121;DHT22;5100;45.176;5.714;2022-12-29T18:13:53;13.80;75.90
10121;DHT22;5100;45.176;5.714;2022-12-29T18:16:21;13.80;76.10
10121;DHT22;5100;45.176;5.714;2022-12-29T18:18:51;13.80;76.20
10121;DHT22;5100;45.176;5.714;2022-12-29T18:21:20;13.80;76.20
10121;DHT22;5100;45.176;5.714;2022-12-29T18:23:48;13.80;76.30
10121;DHT22;5100;45.176;5.714;2022-12-29T18:26:25;13.80;76.40
10121;DHT22;5100;45.176;5.714;2022-12-29T18:28:58;13.80;76.50
10121;DHT22;5100;45.176;5.714;2022-12-29T18:31:27;13.80;76.60
10121;DHT22;5100;45.176;5.714;2022-12-29T18:33:58;13.80;76.60
10121;DHT22;5100;45.176;5.714;2022-12-29T18:36:26;13.80;76.50
10121;DHT22;5100;45.176;5.714;2022-12-29T18:38:54;13.80;76.50
10121;DHT22;5100;45.176;5.714;2022-12-29T18:41:23;13.80;76.60
10121;DHT22;5100;45.176;5.714;2022-12-29T18:43:55;13.80;76.50
10121;DHT22;5100;45.176;5.714;2022-12-29T18:46:25;13.90;76.60
10121;DHT22;5100;45.176;5.714;2022-12-29T18:48:52;13.80;76.60
10121;DHT22;5100;45.176;5.714;2022-12-29T18:51:22;13.90;76.50
10121;DHT22;5100;45.176;5.714;2022-12-29T18:53:49;13.90;76.60
10121;DHT22;5100;45.176;5.714;2022-12-29T18:56:16;13.90;76.50